Tumble, United Kingdom
Current Conditions -  °F | °C
As of 11:50 PM on Friday 21 Nov 2014 (Local Time) from EGOP Reporting Station
Overcast Overcast  
Wind Chill: 54°   Ceiling: 1100
Heat Index: 54°   Visibility: 3mi
Dew Point: 52°   Wind: 15mph
Humidity: 94%   Direction: 120°ESE
Pressure: 29.74"   Gusts: NA
Location:  51.78°N, 4.11°W
Report Text: EGOP 212350Z AUTO 12013KT 5000 // OVC011/// 12/11 Q1007
Loading
Personal Weather Stations






























Interactive Weather Map New forecast layout! Learn more

10-Day Weather Forecast

Advertisements
Track Severe Weather on mobile